| time (UTC) | temp F | wind direction | speed MPH | gust MPH | rain 1hr in | rain 24hr in | rain mn in | humidity % | barometer mb |
| 20260903180500 | 81 | 250 | 5.0 | 7.0 | 0.00 | 0.23 | 0.23 | 74 | 1043.6 |
| 20260903175459 | 81 | 156 | 3.0 | 3.0 | 0.00 | 0.23 | 0.23 | 76 | 1043.8 |
| 20260903174459 | 81 | 278 | 3.0 | 6.0 | 0.00 | 0.23 | 0.23 | 73 | 1043.5 |
| 20260903173455 | 80 | 15 | 3.0 | 3.0 | 0.00 | 0.23 | 0.23 | 74 | 1043.5 |
| 20260903172452 | 80 | 356 | 5.0 | 6.0 | 0.00 | 0.23 | 0.23 | 75 | 1043.9 |
| 20260903171447 | 79 | 48 | 5.0 | 6.0 | 0.00 | 0.23 | 0.23 | 76 | 1043.7 |
| 20260903170442 | 79 | 200 | 3.0 | 5.0 | 0.00 | 0.23 | 0.23 | 77 | 1043.8 |
| 20260903165441 | 79 | 311 | 5.0 | 6.0 | 0.00 | 0.23 | 0.23 | 79 | 1043.9 |
| 20260903164438 | 79 | 355 | 5.0 | 5.0 | 0.00 | 0.23 | 0.23 | 77 | 1044.1 |
| 20260903163433 | 78 | 93 | 2.0 | 2.0 | 0.00 | 0.23 | 0.23 | 79 | 1044.1 |
| 20260903162431 | 77 | 30 | 3.0 | 3.0 | 0.00 | 0.23 | 0.23 | 80 | 1044.5 |
| 20260903161427 | 77 | 259 | 6.0 | 7.0 | 0.00 | 0.23 | 0.23 | 80 | 1044.4 |
| 20260903160422 | 77 | 111 | 3.0 | 3.0 | 0.00 | 0.23 | 0.23 | 83 | 1044.7 |
| 20260903155422 | 76 | 321 | 6.0 | 9.0 | 0.00 | 0.23 | 0.23 | 82 | 1044.9 |
| 20260903154420 | 76 | 278 | 6.0 | 8.0 | 0.00 | 0.23 | 0.23 | 82 | 1045.1 |
| 20260903153416 | 76 | 143 | 4.0 | 6.0 | 0.00 | 0.23 | 0.23 | 84 | 1045.3 |
| 20260903152414 | 75 | 336 | 7.0 | 8.0 | 0.00 | 0.23 | 0.23 | 88 | 1045.0 |
| 20260903151409 | 74 | 356 | 4.0 | 5.0 | 0.00 | 0.23 | 0.23 | 86 | 1045.2 |
| 20260903150404 | 74 | 331 | 5.0 | 8.0 | 0.00 | 0.23 | 0.23 | 86 | 1045.1 |
| 20260903145400 | 73 | 109 | 2.0 | 3.0 | 0.00 | 0.23 | 0.23 | 89 | 1044.9 |
| 20260903144400 | 73 | 78 | 2.0 | 2.0 | 0.00 | 0.23 | 0.23 | 90 | 1045.2 |
| 20260903143359 | 72 | 208 | 3.0 | 3.0 | 0.00 | 0.23 | 0.23 | 91 | 1045.2 |
| 20260903142354 | 72 | 94 | 2.0 | 2.0 | 0.00 | 0.23 | 0.23 | 91 | 1045.3 |
| 20260903141352 | 72 | 130 | 3.0 | 3.0 | 0.00 | 0.23 | 0.23 | 91 | 1045.3 |
| 20260903140348 | 71 | 88 | 4.0 | 5.0 | 0.00 | 0.23 | 0.23 | 93 | 1045.7 |
| 20260903135345 | 71 | 92 | 1.0 | 2.0 | 0.00 | 0.23 | 0.23 | 93 | 1045.4 |
| 20260903134345 | 70 | 249 | 7.0 | 9.0 | 0.00 | 0.23 | 0.23 | 93 | 1045.5 |
| 20260903133345 | 70 | 70 | 2.0 | 2.0 | 0.00 | 0.23 | 0.23 | 94 | 1045.3 |
| 20260903132341 | 70 | 17 | 5.0 | 7.0 | 0.00 | 0.23 | 0.23 | 94 | 1045.2 |
| 20260903131341 | 69 | 102 | 1.0 | 1.0 | 0.00 | 0.23 | 0.23 | 94 | 1045.0 |
| 20260903130341 | 69 | 17 | 6.0 | 8.0 | 0.00 | 0.23 | 0.23 | 95 | 1044.7 |
| 20260903125335 | 68 | 342 | 2.0 | 3.0 | 0.00 | 0.23 | 0.23 | 95 | 1044.8 |
| 20260903124336 | 68 | 298 | 5.0 | 7.0 | 0.00 | 0.23 | 0.23 | 95 | 1045.2 |
| 20260903123335 | 67 | 293 | 5.0 | 6.0 | 0.00 | 0.23 | 0.23 | 95 | 1045.2 |
| 20260903122334 | 67 | 38 | 2.0 | 2.0 | 0.00 | 0.23 | 0.23 | 95 | 1045.0 |
| 20260903121334 | 67 | 69 | 1.0 | 2.0 | 0.00 | 0.23 | 0.23 | 95 | 1044.8 |
| 20260903120334 | 67 | 21 | 3.0 | 3.0 | 0.00 | 0.23 | 0.23 | 95 | 1044.7 |
| 20260903115334 | 67 | 89 | 0.0 | 0.0 | 0.00 | 0.23 | 0.23 | 95 | 1044.7 |
| 20260903114330 | 67 | 90 | 0.0 | 0.0 | 0.00 | 0.23 | 0.23 | 95 | 1044.7 |
| 20260903113326 | 67 | 89 | 0.0 | 0.0 | 0.00 | 0.23 | 0.23 | 95 | 1044.8 |
| 20260903112324 | 67 | 86 | 1.0 | 1.0 | 0.00 | 0.23 | 0.23 | 95 | 1044.5 |
| 20260903111322 | 67 | 81 | 2.0 | 2.0 | 0.00 | 0.23 | 0.23 | 95 | 1044.0 |
| 20260903110320 | 67 | 80 | 1.0 | 1.0 | 0.00 | 0.23 | 0.23 | 95 | 1044.0 |
| 20260903105315 | 67 | 81 | 1.0 | 1.0 | 0.00 | 0.23 | 0.23 | 95 | 1044.4 |
| 20260903104315 | 67 | 99 | 0.0 | 0.0 | 0.00 | 0.23 | 0.23 | 95 | 1044.2 |
| 20260903103314 | 67 | 111 | 2.0 | 2.0 | 0.00 | 0.23 | 0.23 | 95 | 1044.8 |
| 20260903102309 | 67 | 74 | 2.0 | 2.0 | 0.00 | 0.23 | 0.23 | 95 | 1045.2 |
| 20260903101304 | 66 | 94 | 0.0 | 1.0 | 0.00 | 0.23 | 0.23 | 95 | 1045.3 |
| 20260903100259 | 66 | 91 | 0.0 | 1.0 | 0.00 | 0.23 | 0.23 | 95 | 1046.0 |
| 20260903095257 | 67 | 100 | 0.0 | 0.0 | 0.00 | 0.23 | 0.23 | 95 | 1045.7 |
| 20260903094253 | 66 | 3 | 5.0 | 6.0 | 0.05 | 0.23 | 0.23 | 95 | 1045.8 |
| 20260903093249 | 66 | 99 | 0.0 | 0.0 | 0.00 | 0.22 | 0.22 | 95 | 1045.0 |
| 20260903092244 | 65 | 91 | 0.0 | 1.0 | 0.07 | 0.22 | 0.22 | 95 | 1045.0 |
| 20260903091244 | 65 | 103 | 0.0 | 0.0 | 0.00 | 0.21 | 0.21 | 95 | 1045.2 |
| 20260903090238 | 65 | 104 | 0.0 | 0.0 | 0.00 | 0.21 | 0.21 | 95 | 1044.9 |
| 20260903085232 | 65 | 103 | 1.0 | 1.0 | 0.00 | 0.21 | 0.21 | 95 | 1044.7 |
| 20260903084231 | 65 | 97 | 0.0 | 0.0 | 0.00 | 0.21 | 0.21 | 95 | 1044.6 |
| 20260903083226 | 65 | 96 | 0.0 | 0.0 | 0.05 | 0.21 | 0.21 | 95 | 1044.5 |
| 20260903082222 | 65 | 106 | 1.0 | 2.0 | 0.00 | 0.20 | 0.20 | 95 | 1044.6 |
| 20260903081218 | 65 | 86 | 0.0 | 1.0 | 0.00 | 0.20 | 0.20 | 95 | 1045.0 |
| 20260903080217 | 65 | 102 | 0.0 | 0.0 | 0.00 | 0.20 | 0.20 | 95 | 1045.1 |
| 20260903075217 | 65 | 97 | 0.0 | 0.0 | 0.00 | 0.20 | 0.20 | 95 | 1045.5 |
| 20260903074217 | 65 | 86 | 1.0 | 1.0 | 0.00 | 0.20 | 0.20 | 95 | 1045.7 |
| 20260903073213 | 65 | 102 | 1.0 | 1.0 | 0.00 | 0.20 | 0.20 | 95 | 1045.6 |
| 20260903072211 | 65 | 99 | 0.0 | 0.0 | 0.00 | 0.20 | 0.20 | 95 | 1045.5 |
| 20260903071209 | 65 | 98 | 0.0 | 0.0 | 0.00 | 0.20 | 0.20 | 95 | 1045.4 |
| 20260903070204 | 65 | 84 | 0.0 | 0.0 | 0.00 | 0.20 | 0.20 | 95 | 1045.4 |
| 20260903065204 | 65 | 103 | 0.0 | 1.0 | 0.07 | 0.20 | 0.20 | 95 | 1045.4 |
| 20260903064159 | 65 | 53 | 3.0 | 3.0 | 0.24 | 0.19 | 0.19 | 95 | 1045.4 |
| 20260903063155 | 65 | 105 | 1.0 | 2.0 | 0.28 | 0.16 | 0.16 | 95 | 1045.8 |
| 20260903062152 | 65 | 121 | 2.0 | 2.0 | 0.24 | 0.11 | 0.11 | 95 | 1046.8 |
| 20260903061146 | 65 | 86 | 0.0 | 0.0 | 0.12 | 0.08 | 0.08 | 95 | 1047.0 |
| 20260903060143 | 65 | 90 | 0.0 | 0.0 | 0.12 | 0.06 | 0.06 | 95 | 1046.5 |
| 20260903055139 | 65 | 80 | 1.0 | 2.0 | 0.00 | 0.04 | 0.04 | 95 | 1046.4 |
| 20260903054135 | 65 | 89 | 1.0 | 1.0 | 0.00 | 0.04 | 0.04 | 95 | 1046.7 |
| 20260903053132 | 65 | 94 | 0.0 | 0.0 | 0.00 | 0.04 | 0.04 | 95 | 1046.8 |
| 20260903052129 | 65 | 79 | 0.0 | 0.0 | 0.00 | 0.04 | 0.04 | 95 | 1046.6 |
| 20260903051125 | 65 | 98 | 0.0 | 0.0 | 0.00 | 0.04 | 0.04 | 95 | 1046.5 |
| 20260903050126 | 65 | 103 | 2.0 | 2.0 | 0.12 | 0.04 | 0.04 | 95 | 1046.6 |
| 20260903045122 | 65 | 99 | 1.0 | 1.0 | 0.00 | 0.02 | 0.02 | 95 | 1046.5 |
| 20260903044119 | 65 | 87 | 0.0 | 0.0 | 0.00 | 0.02 | 0.02 | 95 | 1046.9 |
| 20260903043114 | 65 | 106 | 2.0 | 2.0 | 0.07 | 0.02 | 0.02 | 95 | 1047.3 |
| 20260903042110 | 65 | 89 | 1.0 | 1.0 | 0.00 | 0.01 | 0.01 | 95 | 1046.9 |
| 20260903041107 | 65 | 75 | 2.0 | 2.0 | 0.05 | 0.01 | 0.01 | 95 | 1047.2 |
| 20260903040103 | 65 | 114 | 5.0 | 7.0 | 0.00 | 0.53 | 0.53 | 95 | 1046.6 |
| 20260903035100 | 65 | 95 | 1.0 | 3.0 | 0.07 | 0.53 | 0.53 | 95 | 1047.1 |
| 20260903034055 | 65 | 135 | 4.0 | 5.0 | 0.05 | 0.52 | 0.52 | 95 | 1047.6 |
| 20260903033051 | 65 | 91 | 1.0 | 2.0 | 0.00 | 0.51 | 0.51 | 95 | 1048.0 |
| 20260903032048 | 66 | 107 | 1.0 | 1.0 | 0.12 | 0.51 | 0.51 | 95 | 1047.9 |
| 20260903031049 | 66 | 97 | 0.0 | 0.0 | 0.66 | 0.49 | 0.49 | 95 | 1048.4 |
| 20260903030046 | 67 | 104 | 0.0 | 1.0 | 1.75 | 0.40 | 0.40 | 95 | 1049.8 |
| 20260903025043 | 68 | 177 | 2.0 | 3.0 | 0.35 | 0.11 | 0.11 | 95 | 1050.9 |
| 20260903024043 | 69 | 115 | 0.0 | 1.0 | 0.07 | 0.05 | 0.05 | 95 | 1047.6 |
| 20260903023040 | 69 | 75 | 2.0 | 2.0 | 0.05 | 0.04 | 0.04 | 95 | 1047.3 |
| 20260903022038 | 69 | 102 | 0.0 | 0.0 | 0.00 | 0.03 | 0.03 | 94 | 1046.4 |
| 20260903021033 | 69 | 90 | 0.0 | 1.0 | 0.00 | 0.03 | 0.03 | 94 | 1046.7 |
| 20260903020029 | 69 | 71 | 1.0 | 1.0 | 0.00 | 0.03 | 0.03 | 94 | 1046.8 |
| 20260903015026 | 70 | 88 | 1.0 | 1.0 | 0.00 | 0.03 | 0.03 | 94 | 1047.1 |
| 20260903014026 | 69 | 84 | 1.0 | 1.0 | 0.00 | 0.03 | 0.03 | 94 | 1047.5 |
| 20260903013026 | 70 | 101 | 1.0 | 1.0 | 0.00 | 0.03 | 0.03 | 94 | 1047.2 |
| 20260903012024 | 70 | 75 | 1.0 | 2.0 | 0.00 | 0.03 | 0.03 | 93 | 1047.3 |
| 20260903011019 | 70 | 66 | 2.0 | 3.0 | 0.00 | 0.03 | 0.03 | 93 | 1046.8 |
| 20260903010019 | 70 | 36 | 3.0 | 3.0 | 0.00 | 0.03 | 0.03 | 93 | 1046.6 |
| 20260903005015 | 70 | 93 | 5.0 | 7.0 | 0.00 | 0.03 | 0.03 | 93 | 1046.3 |
| 20260903004011 | 71 | 79 | 1.0 | 1.0 | 0.00 | 0.03 | 0.03 | 93 | 1046.3 |
| 20260903003007 | 71 | 92 | 2.0 | 2.0 | 0.00 | 0.03 | 0.03 | 92 | 1046.4 |
| 20260903002007 | 71 | 151 | 3.0 | 3.0 | 0.00 | 0.03 | 0.03 | 92 | 1046.2 |
| 20260903001001 | 71 | 113 | 0.0 | 1.0 | 0.00 | 0.03 | 0.03 | 92 | 1046.3 |
| 20260903000000 | 71 | 93 | 0.0 | 1.0 | 0.00 | 0.03 | 0.03 | 92 | 1046.3 |
| 20260902234956 | 71 | 85 | 1.0 | 2.0 | 0.00 | 0.03 | 0.03 | 92 | 1046.7 |
| 20260902233956 | 71 | 77 | 1.0 | 2.0 | 0.00 | 0.03 | 0.03 | 92 | 1046.4 |
| 20260902232956 | 72 | 93 | 1.0 | 2.0 | 0.00 | 0.03 | 0.03 | 91 | 1046.0 |
| 20260902231955 | 72 | 84 | 4.0 | 6.0 | 0.00 | 0.03 | 0.03 | 91 | 1045.9 |
| 20260902230952 | 72 | 102 | 2.0 | 3.0 | 0.00 | 0.03 | 0.03 | 91 | 1046.0 |
| 20260902225950 | 72 | 149 | 3.0 | 3.0 | 0.00 | 0.03 | 0.03 | 91 | 1045.8 |
| 20260902224951 | 73 | 73 | 1.0 | 2.0 | 0.00 | 0.03 | 0.03 | 91 | 1046.1 |
| 20260902223947 | 73 | 113 | 1.0 | 1.0 | 0.00 | 0.03 | 0.03 | 90 | 1046.1 |
| 20260902222948 | 73 | 55 | 2.0 | 2.0 | 0.00 | 0.03 | 0.03 | 90 | 1046.3 |
| 20260902221946 | 74 | 94 | 1.0 | 2.0 | 0.00 | 0.03 | 0.03 | 89 | 1046.2 |
| 20260902220941 | 74 | 50 | 2.0 | 3.0 | 0.00 | 0.03 | 0.03 | 88 | 1046.5 |
| 20260902215942 | 75 | 94 | 1.0 | 2.0 | 0.00 | 0.03 | 0.03 | 88 | 1046.5 |
| 20260902214939 | 75 | 319 | 2.0 | 2.0 | 0.00 | 0.03 | 0.03 | 87 | 1046.4 |
| 20260902213938 | 75 | 119 | 1.0 | 1.0 | 0.00 | 0.03 | 0.03 | 86 | 1046.4 |
| 20260902212933 | 74 | 101 | 1.0 | 2.0 | 0.00 | 0.03 | 0.03 | 87 | 1046.5 |
| 20260902211931 | 75 | 89 | 2.0 | 2.0 | 0.00 | 0.03 | 0.03 | 87 | 1046.6 |
| 20260902210928 | 75 | 48 | 3.0 | 3.0 | 0.00 | 0.03 | 0.03 | 88 | 1046.7 |
| 20260902205926 | 76 | 94 | 3.0 | 5.0 | 0.00 | 0.03 | 0.03 | 86 | 1046.6 |
| 20260902204923 | 75 | 108 | 1.0 | 2.0 | 0.00 | 0.03 | 0.03 | 88 | 1046.5 |
| 20260902203918 | 75 | 100 | 0.0 | 1.0 | 0.00 | 0.03 | 0.03 | 88 | 1046.5 |
| 20260902202918 | 75 | 69 | 3.0 | 3.0 | 0.00 | 0.03 | 0.03 | 87 | 1046.3 |
| 20260902201916 | 75 | 100 | 0.0 | 1.0 | 0.00 | 0.03 | 0.03 | 88 | 1046.6 |
| 20260902200916 | 75 | 90 | 0.0 | 1.0 | 0.00 | 0.03 | 0.03 | 88 | 1046.8 |
| 20260902195913 | 76 | 98 | 3.0 | 3.0 | 0.00 | 0.03 | 0.03 | 88 | 1046.8 |
| 20260902194908 | 75 | 141 | 2.0 | 2.0 | 0.00 | 0.03 | 0.03 | 88 | 1047.1 |
| 20260902193909 | 74 | 91 | 1.0 | 1.0 | 0.00 | 0.03 | 0.03 | 90 | 1046.9 |
| 20260902192903 | 74 | 97 | 1.0 | 1.0 | 0.00 | 0.03 | 0.03 | 89 | 1047.0 |
| 20260902191902 | 74 | 86 | 2.0 | 3.0 | 0.00 | 0.03 | 0.03 | 88 | 1047.1 |
| 20260902190858 | 74 | 87 | 3.0 | 6.0 | 0.00 | 0.03 | 0.03 | 88 | 1047.2 |
| 20260902185854 | 74 | 123 | 2.0 | 2.0 | 0.00 | 0.03 | 0.03 | 90 | 1047.9 |
| 20260902184851 | 74 | 86 | 1.0 | 1.0 | 0.00 | 0.03 | 0.03 | 88 | 1047.3 |
| 20260902183847 | 74 | 131 | 5.0 | 7.0 | 0.00 | 0.03 | 0.03 | 89 | 1047.1 |
| 20260902182845 | 73 | 56 | 3.0 | 3.0 | 0.00 | 0.03 | 0.03 | 90 | 1047.2 |
| 20260902181843 | 73 | 106 | 4.0 | 7.0 | 0.00 | 0.03 | 0.03 | 90 | 1047.2 |
| 20260902180838 | 71 | 91 | 2.0 | 2.0 | 0.00 | 0.03 | 0.03 | 92 | 1047.5 |